Terminal Aerodrome Forecast
Issued by NWS

Home | Current Version | Previous Version | Text Only | Print | Product List | Glossary On
Versions: 1 2 3 4 5 6 7 8 9 10 11 12 13 14 15 16 17 18 19 20 21 22 23 24 25 26 27 28
000
FTUS43 KPAH 251000 AAA
TAFOWB
TAF AMD
KOWB 251000Z 2510/2606 16008KT P6SM SCT040 BKN120 WS020/19040KT
      TEMPO 2511/2513 3SM SHRA BR BKN035
     FM251300 16012G19KT P6SM BKN035 WS020/19040KT
     FM251500 18015G23KT P6SM -SHRA BKN035
     FM251800 18016G25KT P6SM -SHRA BKN040
     FM260000 16009KT P6SM -SHRA BKN045=

USA.gov is the U.S. government's official web portal to all federal, state and local government web resources and services.